This is the latest recevied weather packets stored in our database for station/object DH0DM-13. If no packets are shown the sender has not sent any weather packets the latest 10 day(s).
| Time | Temp. | Humidity | Pressure | Rain* | Wind** | Luminosity | Snow |
|---|---|---|---|---|---|---|---|
| 1787557504 | 15° C | 74% | 997 hPa | 0 mm | 1.79 m/s, 247° | - | - |
| 1787556903 | 15.56° C | 73% | 997 hPa | 0 mm | 2.24 m/s, 213° | - | - |
| 1787556302 | 14.44° C | 74% | 996.9 hPa | 0 mm | 6.71 m/s, 232° | - | - |
| 1787555701 | 14.44° C | 75% | 996.8 hPa | 0 mm | 4.02 m/s, 225° | - | - |
| 1787555100 | 13.89° C | 75% | 996.8 hPa | 0 mm | 1.79 m/s, 273° | - | - |
| 1787554499 | 13.89° C | 75% | 997 hPa | 0 mm | 5.36 m/s, 246° | - | - |
| 1787553898 | 13.33° C | 77% | 996.9 hPa | 0 mm | 2.24 m/s, 273° | - | - |
| 1787553297 | 13.33° C | 76% | 996.7 hPa | 0 mm | 6.26 m/s, 239° | - | - |
| 1787552696 | 13.33° C | 76% | 996.8 hPa | 0 mm | 3.13 m/s, 211° | - | - |
| 1787552095 | 12.78° C | 76% | 997 hPa | 0 mm | 2.68 m/s, 246° | - | - |
| 1787551494 | 12.78° C | 76% | 996.7 hPa | 0 mm | 3.58 m/s, 238° | - | - |
| 1787550893 | 12.78° C | 75% | 996.8 hPa | 0 mm | 3.58 m/s, 269° | - | - |
| 1787550293 | 12.78° C | 77% | 996.8 hPa | 0 mm | 1.34 m/s, 158° | - | - |
| 1787549692 | 12.22° C | 78% | 996.7 hPa | 0 mm | 3.58 m/s, 242° | - | - |
| 1787549091 | 11.67° C | 81% | 996.8 hPa | 0 mm | 0.89 m/s, 240° | - | - |
| 1787548490 | 10.56° C | 86% | 996.6 hPa | 0 mm | 0 m/s | - | - |
| 1787547889 | 8.33° C | 91% | 996.8 hPa | 0 mm | 0 m/s | - | - |
| 1787547288 | 8.33° C | 92% | 996.7 hPa | 0 mm | 0.89 m/s, 76° | - | - |
| 1787546687 | 7.78° C | 92% | 996.4 hPa | 0 mm | 0 m/s | - | - |
| 1787546086 | 7.78° C | 92% | 996.1 hPa | 0 mm | 1.34 m/s, 136° | - | - |
| 1787545485 | 7.78° C | 92% | 996.3 hPa | 0 mm | 2.24 m/s, 82° | - | - |
| 1787544884 | 7.78° C | 92% | 996.2 hPa | 0 mm | 1.34 m/s, 71° | - | - |
| 1787544283 | 7.78° C | 92% | 996 hPa | 0 mm | 1.34 m/s, 69° | - | - |
| 1787543683 | 7.78° C | 92% | 996.2 hPa | 0 mm | 0 m/s | - | - |
| 1787543082 | 7.78° C | 92% | 996 hPa | 0 mm | 0 m/s | - | - |
* Rain since midnight (hover to see other rain measurements)
** Current wind speed in m/s (hover to see current wind gust speed)